createdAt,value
2023-11-18T00:00:55.820Z,1024.12
2023-11-18T00:01:56.083Z,1024.07
2023-11-18T00:02:56.243Z,1024.04
2023-11-18T00:03:56.438Z,1024.12
2023-11-18T00:04:56.545Z,1024.09
2023-11-18T00:05:56.737Z,1024.14
2023-11-18T00:06:56.878Z,1024.10
2023-11-18T00:07:57.121Z,1024.13
2023-11-18T00:08:57.241Z,1024.13
2023-11-18T00:09:57.407Z,1024.17
2023-11-18T00:10:57.612Z,1024.15
2023-11-18T00:11:57.719Z,1024.18
2023-11-18T00:12:57.932Z,1024.18
2023-11-18T00:13:58.176Z,1024.24
2023-11-18T00:14:58.276Z,1024.22
2023-11-18T00:15:58.444Z,1024.25
2023-11-18T00:16:58.641Z,1024.27
2023-11-18T00:17:58.868Z,1024.29
2023-11-18T00:18:58.994Z,1024.31
2023-11-18T00:19:59.189Z,1024.29
2023-11-18T00:20:59.377Z,1024.33
2023-11-18T00:21:59.515Z,1024.40
2023-11-18T00:22:59.794Z,1024.42
2023-11-18T00:23:59.916Z,1024.40
2023-11-18T00:25:00.052Z,1024.44
2023-11-18T00:26:00.255Z,1024.46
2023-11-18T00:27:00.413Z,1024.48
2023-11-18T00:28:00.581Z,1024.50
2023-11-18T00:29:00.800Z,1024.51
2023-11-18T00:30:01.036Z,1024.50
2023-11-18T00:31:01.208Z,1024.48
2023-11-18T00:32:01.385Z,1024.51
2023-11-18T00:33:01.555Z,1024.55
2023-11-18T00:34:01.622Z,1024.53
2023-11-18T00:35:01.856Z,1024.53
2023-11-18T00:36:01.949Z,1024.58
2023-11-18T00:37:02.151Z,1024.54
2023-11-18T00:38:02.391Z,1024.53
2023-11-18T00:39:02.532Z,1024.58
2023-11-18T00:40:02.726Z,1024.59
2023-11-18T00:41:02.845Z,1024.64
2023-11-18T00:42:02.995Z,1024.60
2023-11-18T00:43:03.156Z,1024.58
2023-11-18T00:44:03.379Z,1024.64
2023-11-18T00:45:03.515Z,1024.61
2023-11-18T00:46:03.656Z,1024.61
2023-11-18T00:47:04.089Z,1024.66
2023-11-18T00:48:04.107Z,1024.60
2023-11-18T00:49:04.207Z,1024.61
2023-11-18T00:50:04.545Z,1024.65
2023-11-18T00:51:04.550Z,1024.65
2023-11-18T00:52:04.703Z,1024.71
2023-11-18T00:53:04.919Z,1024.70
2023-11-18T00:54:05.066Z,1024.72
2023-11-18T00:55:05.261Z,1024.78
2023-11-18T00:56:05.477Z,1024.81
2023-11-18T00:57:05.621Z,1024.78
2023-11-18T00:58:05.807Z,1024.84
2023-11-18T00:59:06.029Z,1024.82
2023-11-18T01:00:06.139Z,1024.82
2023-11-18T01:01:06.342Z,1024.80
2023-11-18T01:02:06.545Z,1024.83
2023-11-18T01:03:06.754Z,1024.80
2023-11-18T01:04:06.861Z,1024.89
2023-11-18T01:05:07.096Z,1024.89
2023-11-18T01:06:07.183Z,1024.89
2023-11-18T01:07:07.329Z,1024.89
2023-11-18T01:08:07.610Z,1024.95
2023-11-18T01:09:07.765Z,1024.93
2023-11-18T01:10:07.910Z,1024.93
2023-11-18T01:11:08.049Z,1024.92
2023-11-18T01:12:09.240Z,1024.92
2023-11-18T01:13:08.386Z,1024.94
2023-11-18T01:14:08.646Z,1025.01
2023-11-18T01:15:08.774Z,1024.92
2023-11-18T01:16:08.973Z,1024.98
2023-11-18T01:17:09.145Z,1024.97
2023-11-18T01:18:09.379Z,1024.97
2023-11-18T01:19:09.469Z,1025.01
2023-11-18T01:20:09.651Z,1024.99
2023-11-18T01:21:09.810Z,1024.97
2023-11-18T01:22:10.002Z,1024.98
2023-11-18T01:23:10.200Z,1025.00
2023-11-18T01:24:10.337Z,1024.97
2023-11-18T01:25:10.491Z,1024.93
2023-11-18T01:26:10.686Z,1024.94
2023-11-18T01:27:10.910Z,1024.94
2023-11-18T01:28:11.115Z,1024.91
2023-11-18T01:29:11.247Z,1024.92
2023-11-18T01:30:11.492Z,1024.97
2023-11-18T01:31:11.668Z,1024.99
2023-11-18T01:32:11.875Z,1024.98
2023-11-18T01:33:12.009Z,1024.99
2023-11-18T01:34:12.128Z,1025.02
2023-11-18T01:35:12.543Z,1025.01
2023-11-18T01:36:12.514Z,1025.04
2023-11-18T01:37:12.727Z,1025.03
2023-11-18T01:38:12.838Z,1025.02
2023-11-18T01:39:13.011Z,1025.00
2023-11-18T01:40:13.171Z,1025.00
2023-11-18T01:41:13.357Z,1025.03
2023-11-18T01:42:13.507Z,1025.04
2023-11-18T01:43:13.719Z,1025.03
2023-11-18T01:44:13.879Z,1025.01
2023-11-18T01:45:14.046Z,1025.04
2023-11-18T01:46:14.414Z,1025.02
2023-11-18T01:47:14.451Z,1025.04
2023-11-18T01:48:14.609Z,1025.08
2023-11-18T01:49:14.848Z,1025.02
2023-11-18T01:50:14.933Z,1025.08
2023-11-18T01:51:15.121Z,1025.08
2023-11-18T01:52:15.314Z,1025.09
2023-11-18T01:53:15.563Z,1025.09
2023-11-18T01:54:15.667Z,1025.12
2023-11-18T01:55:15.945Z,1025.11
2023-11-18T01:56:16.001Z,1025.13
2023-11-18T01:57:16.178Z,1025.16
2023-11-18T01:58:16.390Z,1025.14
2023-11-18T01:59:16.548Z,1025.14
2023-11-18T02:00:16.728Z,1025.12
2023-11-18T02:01:16.932Z,1025.09
2023-11-18T02:02:17.211Z,1025.17
2023-11-18T02:03:17.371Z,1025.13
2023-11-18T02:04:17.575Z,1025.13
2023-11-18T02:05:17.671Z,1025.19
2023-11-18T02:06:17.861Z,1025.17
2023-11-18T02:07:18.017Z,1025.18
2023-11-18T02:08:18.164Z,1025.16
2023-11-18T02:09:18.361Z,1025.19
2023-11-18T02:10:18.569Z,1025.14
2023-11-18T02:11:18.746Z,1025.17
2023-11-18T02:12:18.915Z,1025.14
2023-11-18T02:13:19.042Z,1025.17
2023-11-18T02:14:19.267Z,1025.16
2023-11-18T02:15:19.423Z,1025.14
2023-11-18T02:16:19.593Z,1025.17
2023-11-18T02:17:19.774Z,1025.20
2023-11-18T02:18:19.997Z,1025.18
2023-11-18T02:19:20.131Z,1025.23
2023-11-18T02:20:20.309Z,1025.21
2023-11-18T02:21:20.459Z,1025.22
2023-11-18T02:22:20.640Z,1025.18
2023-11-18T02:23:20.865Z,1025.20
2023-11-18T02:24:21.019Z,1025.19
2023-11-18T02:25:21.186Z,1025.25
2023-11-18T02:26:21.349Z,1025.25
2023-11-18T02:27:21.572Z,1025.25
2023-11-18T02:28:21.717Z,1025.26
2023-11-18T02:29:22.013Z,1025.26
2023-11-18T02:30:22.071Z,1025.24
2023-11-18T02:31:22.303Z,1025.26
2023-11-18T02:32:22.459Z,1025.27
2023-11-18T02:33:22.651Z,1025.26
2023-11-18T02:34:22.813Z,1025.21
2023-11-18T02:35:22.976Z,1025.31
2023-11-18T02:36:23.175Z,1025.27
2023-11-18T02:37:23.334Z,1025.29
2023-11-18T02:38:23.487Z,1025.29
2023-11-18T02:39:23.716Z,1025.30
2023-11-18T02:40:23.857Z,1025.27
2023-11-18T02:41:24.051Z,1025.31
2023-11-18T02:42:24.175Z,1025.35
2023-11-18T02:43:24.361Z,1025.30
2023-11-18T02:44:24.652Z,1025.29
2023-11-18T02:45:24.762Z,1025.28
2023-11-18T02:46:24.904Z,1025.29
2023-11-18T02:47:25.073Z,1025.27
2023-11-18T02:48:25.258Z,1025.28
2023-11-18T02:49:25.377Z,1025.22
2023-11-18T02:50:25.560Z,1025.25
2023-11-18T02:51:25.752Z,1025.22
2023-11-18T02:52:25.915Z,1025.25
2023-11-18T02:53:26.091Z,1025.23
2023-11-18T02:54:26.244Z,1025.22
2023-11-18T02:55:26.469Z,1025.22
2023-11-18T02:56:26.627Z,1025.23
2023-11-18T02:57:26.782Z,1025.23
2023-11-18T02:58:26.934Z,1025.24
2023-11-18T02:59:27.125Z,1025.26
2023-11-18T03:00:27.301Z,1025.23
2023-11-18T03:01:27.479Z,1025.23
2023-11-18T03:02:27.662Z,1025.28
2023-11-18T03:03:27.875Z,1025.27
2023-11-18T03:04:27.987Z,1025.27
2023-11-18T03:05:28.197Z,1025.25
2023-11-18T03:06:28.363Z,1025.28
2023-11-18T03:07:28.588Z,1025.27
2023-11-18T03:08:28.694Z,1025.28
2023-11-18T03:09:28.992Z,1025.30
2023-11-18T03:10:29.064Z,1025.34
2023-11-18T03:11:29.178Z,1025.31
2023-11-18T03:12:29.482Z,1025.33
2023-11-18T03:13:29.573Z,1025.35
2023-11-18T03:14:29.818Z,1025.27
2023-11-18T03:15:29.887Z,1025.31
2023-11-18T03:16:30.161Z,1025.31
2023-11-18T03:17:30.240Z,1025.31
2023-11-18T03:18:30.418Z,1025.32
2023-11-18T03:19:30.686Z,1025.33
2023-11-18T03:20:30.780Z,1025.34
2023-11-18T03:21:30.926Z,1025.32
2023-11-18T03:22:31.187Z,1025.34
2023-11-18T03:23:31.290Z,1025.28
2023-11-18T03:24:31.502Z,1025.31
2023-11-18T03:25:31.742Z,1025.31
2023-11-18T03:26:31.785Z,1025.31
2023-11-18T03:27:31.978Z,1025.33
2023-11-18T03:28:32.193Z,1025.35
2023-11-18T03:29:32.352Z,1025.36
2023-11-18T03:30:32.519Z,1025.34
2023-11-18T03:31:32.672Z,1025.34
2023-11-18T03:32:32.931Z,1025.42
2023-11-18T03:33:33.055Z,1025.39
2023-11-18T03:34:33.352Z,1025.43
2023-11-18T03:35:33.413Z,1025.42
2023-11-18T03:36:33.510Z,1025.43
2023-11-18T03:37:33.686Z,1025.44
2023-11-18T03:38:34.373Z,1025.46
2023-11-18T03:39:34.015Z,1025.47
2023-11-18T03:40:34.224Z,1025.46
2023-11-18T03:41:34.355Z,1025.47
2023-11-18T03:42:34.515Z,1025.48
2023-11-18T03:43:34.713Z,1025.45
2023-11-18T03:44:34.860Z,1025.48
2023-11-18T03:45:35.048Z,1025.46
2023-11-18T03:46:35.597Z,1025.49
2023-11-18T03:47:35.531Z,1025.48
2023-11-18T03:48:35.613Z,1025.48
2023-11-18T03:49:35.765Z,1025.53
2023-11-18T03:50:35.972Z,1025.54
2023-11-18T03:51:36.128Z,1025.53
2023-11-18T03:52:36.324Z,1025.51
2023-11-18T03:53:36.493Z,1025.47
2023-11-18T03:54:36.648Z,1025.50
2023-11-18T03:55:36.851Z,1025.53
2023-11-18T03:56:36.997Z,1025.50
2023-11-18T03:57:37.181Z,1025.51
2023-11-18T03:58:37.373Z,1025.55
2023-11-18T03:59:37.505Z,1025.50
2023-11-18T04:00:37.699Z,1025.54
2023-11-18T04:01:37.942Z,1025.54
2023-11-18T04:02:38.099Z,1025.56
2023-11-18T04:03:38.246Z,1025.57
2023-11-18T04:04:38.383Z,1025.57
2023-11-18T04:05:38.552Z,1025.58
2023-11-18T04:06:38.753Z,1025.58
2023-11-18T04:07:38.935Z,1025.60
2023-11-18T04:08:39.138Z,1025.56
2023-11-18T04:09:39.326Z,1025.58
2023-11-18T04:10:39.525Z,1025.56
2023-11-18T04:11:39.664Z,1025.56
2023-11-18T04:12:39.851Z,1025.55
2023-11-18T04:13:39.999Z,1025.59
2023-11-18T04:14:40.203Z,1025.62
2023-11-18T04:15:40.403Z,1025.64
2023-11-18T04:16:40.629Z,1025.70
2023-11-18T04:17:40.803Z,1025.65
2023-11-18T04:18:40.956Z,1025.69
2023-11-18T04:19:41.092Z,1025.77
2023-11-18T04:20:41.261Z,1025.73
2023-11-18T04:21:41.478Z,1025.72
2023-11-18T04:22:41.625Z,1025.75
2023-11-18T04:23:41.852Z,1025.76
2023-11-18T04:24:41.983Z,1025.78
2023-11-18T04:25:42.222Z,1025.76
2023-11-18T04:26:42.411Z,1025.74
2023-11-18T04:27:45.377Z,1025.77
2023-11-18T04:28:42.745Z,1025.76
2023-11-18T04:29:42.850Z,1025.72
2023-11-18T04:30:43.091Z,1025.82
2023-11-18T04:31:43.383Z,1025.79
2023-11-18T04:32:44.164Z,1025.81
2023-11-18T04:33:43.527Z,1025.86
2023-11-18T04:34:44.026Z,1025.87
2023-11-18T04:35:43.855Z,1025.89
2023-11-18T04:36:44.045Z,1025.86
2023-11-18T04:37:44.884Z,1025.87
2023-11-18T04:38:44.425Z,1025.87
2023-11-18T04:39:44.551Z,1025.86
2023-11-18T04:40:44.807Z,1025.87
2023-11-18T04:41:44.958Z,1025.95
2023-11-18T04:42:45.113Z,1025.93
2023-11-18T04:43:46.191Z,1025.99
2023-11-18T04:44:45.468Z,1025.96
2023-11-18T04:45:45.685Z,1026.00
2023-11-18T04:46:45.910Z,1025.96
2023-11-18T04:47:46.360Z,1025.99
2023-11-18T04:48:46.343Z,1025.97
2023-11-18T04:49:46.369Z,1026.00
2023-11-18T04:50:46.557Z,1026.01
2023-11-18T04:51:46.735Z,1026.02
2023-11-18T04:52:46.920Z,1026.02
2023-11-18T04:53:47.057Z,1026.03
2023-11-18T04:54:47.237Z,1026.08
2023-11-18T04:55:47.472Z,1026.04
2023-11-18T04:56:47.629Z,1026.00
2023-11-18T04:57:47.799Z,1026.00
2023-11-18T04:58:48.024Z,1025.96
2023-11-18T04:59:48.130Z,1025.98
2023-11-18T05:00:48.333Z,1025.94
2023-11-18T05:01:48.522Z,1026.00
2023-11-18T05:02:49.120Z,1025.94
2023-11-18T05:03:49.032Z,1025.98
2023-11-18T05:04:49.020Z,1025.92
2023-11-18T05:05:49.145Z,1025.95
2023-11-18T05:06:49.342Z,1025.95
2023-11-18T05:07:49.603Z,1026.01
2023-11-18T05:08:49.719Z,1026.01
2023-11-18T05:09:49.842Z,1026.03
2023-11-18T05:10:50.128Z,1025.97
2023-11-18T05:11:50.199Z,1025.99
2023-11-18T05:12:50.492Z,1026.02
2023-11-18T05:13:50.731Z,1025.97
2023-11-18T05:14:50.715Z,1025.97
2023-11-18T05:15:50.888Z,1026.02
2023-11-18T05:16:51.094Z,1026.01
2023-11-18T05:17:51.366Z,1026.08
2023-11-18T05:18:51.436Z,1026.04
2023-11-18T05:19:51.634Z,1026.05
2023-11-18T05:20:51.781Z,1026.04
2023-11-18T05:21:51.963Z,1026.06
2023-11-18T05:22:52.209Z,1026.10
2023-11-18T05:23:52.320Z,1026.07
2023-11-18T05:24:52.542Z,1026.08
2023-11-18T05:25:52.777Z,1026.13
2023-11-18T05:26:52.879Z,1026.07
2023-11-18T05:27:53.083Z,1026.04
2023-11-18T05:28:53.274Z,1026.06
2023-11-18T05:29:53.405Z,1026.07
2023-11-18T05:30:53.679Z,1026.09
2023-11-18T05:31:53.773Z,1026.03
2023-11-18T05:32:53.942Z,1026.01
2023-11-18T05:33:54.077Z,1026.05
2023-11-18T05:34:54.271Z,1026.01
2023-11-18T05:35:54.397Z,1026.01
2023-11-18T05:36:54.591Z,1025.98
2023-11-18T05:37:54.852Z,1026.00
2023-11-18T05:38:54.956Z,1025.95
2023-11-18T05:39:55.099Z,1025.98
2023-11-18T05:40:55.297Z,1025.94
2023-11-18T05:41:55.480Z,1025.90
2023-11-18T05:42:55.611Z,1025.91
2023-11-18T05:43:55.819Z,1025.90
2023-11-18T05:44:55.966Z,1025.88
2023-11-18T05:45:56.124Z,1025.93
2023-11-18T05:46:56.435Z,1025.90
2023-11-18T05:47:56.530Z,1025.94
2023-11-18T05:48:56.652Z,1025.94
2023-11-18T05:49:56.834Z,1025.93
2023-11-18T05:50:57.031Z,1025.97
2023-11-18T05:51:57.154Z,1026.00
2023-11-18T05:52:57.402Z,1025.97
2023-11-18T05:53:57.545Z,1026.00
2023-11-18T05:54:57.702Z,1026.03
2023-11-18T05:55:57.922Z,1026.05
2023-11-18T05:56:59.960Z,1026.04
2023-11-18T05:57:58.230Z,1026.03
2023-11-18T05:58:58.461Z,1026.05
2023-11-18T05:59:58.632Z,1026.09
2023-11-18T06:00:58.796Z,1026.04
2023-11-18T06:01:58.974Z,1026.03
2023-11-18T06:02:59.297Z,1026.10
2023-11-18T06:03:59.383Z,1026.06
2023-11-18T06:04:59.496Z,1026.06
2023-11-18T06:05:59.620Z,1026.09
2023-11-18T06:06:59.858Z,1026.08
2023-11-18T06:08:00.110Z,1026.08
2023-11-18T06:09:00.273Z,1026.10
2023-11-18T06:10:00.449Z,1026.05
2023-11-18T06:11:00.534Z,1026.06
2023-11-18T06:12:00.735Z,1026.05
2023-11-18T06:13:00.863Z,1026.03
2023-11-18T06:14:01.089Z,1026.05
2023-11-18T06:15:01.236Z,1026.05
2023-11-18T06:16:01.390Z,1026.09
2023-11-18T06:17:01.602Z,1026.08
2023-11-18T06:18:01.775Z,1026.07
2023-11-18T06:19:01.856Z,1026.09
2023-11-18T06:20:02.111Z,1026.08
2023-11-18T06:21:02.232Z,1026.06
2023-11-18T06:22:02.357Z,1026.12
2023-11-18T06:23:02.569Z,1026.15
2023-11-18T06:24:02.707Z,1026.19
2023-11-18T06:25:02.918Z,1026.20
2023-11-18T06:26:03.128Z,1026.21
2023-11-18T06:27:03.224Z,1026.21
2023-11-18T06:28:03.370Z,1026.21
2023-11-18T06:29:03.592Z,1026.21
2023-11-18T06:30:03.739Z,1026.28
2023-11-18T06:31:03.951Z,1026.26
2023-11-18T06:32:04.179Z,1026.26
2023-11-18T06:33:04.365Z,1026.27
2023-11-18T06:34:04.447Z,1026.30
2023-11-18T06:35:04.626Z,1026.29
2023-11-18T06:36:04.790Z,1026.28
2023-11-18T06:37:05.034Z,1026.32
2023-11-18T06:38:05.188Z,1026.31
2023-11-18T06:39:05.339Z,1026.32
2023-11-18T06:40:05.490Z,1026.28
2023-11-18T06:41:07.399Z,1026.30
2023-11-18T06:42:05.890Z,1026.32
2023-11-18T06:43:06.039Z,1026.30
2023-11-18T06:44:06.250Z,1026.32
2023-11-18T06:45:06.372Z,1026.29
2023-11-18T06:46:06.588Z,1026.31
2023-11-18T06:47:06.953Z,1026.31
2023-11-18T06:48:07.070Z,1026.30
2023-11-18T06:49:07.045Z,1026.32
2023-11-18T06:50:07.268Z,1026.27
2023-11-18T06:51:07.363Z,1026.31
2023-11-18T06:52:07.578Z,1026.26
2023-11-18T06:53:07.773Z,1026.25
2023-11-18T06:54:07.906Z,1026.22
2023-11-18T06:55:08.078Z,1026.22
2023-11-18T06:56:08.268Z,1026.25
2023-11-18T06:57:08.463Z,1026.26
2023-11-18T06:58:08.614Z,1026.26
2023-11-18T06:59:08.951Z,1026.25
2023-11-18T07:00:08.960Z,1026.25
2023-11-18T07:01:09.267Z,1026.23
2023-11-18T07:02:09.366Z,1026.23
2023-11-18T07:03:09.571Z,1026.27
2023-11-18T07:04:09.887Z,1026.25
2023-11-18T07:05:09.919Z,1026.25
2023-11-18T07:06:10.016Z,1026.22
2023-11-18T07:07:10.286Z,1026.25
2023-11-18T07:08:10.362Z,1026.24
2023-11-18T07:09:10.526Z,1026.27
2023-11-18T07:10:10.700Z,1026.27
2023-11-18T07:11:10.929Z,1026.25
2023-11-18T07:12:11.055Z,1026.29
2023-11-18T07:13:11.232Z,1026.28
2023-11-18T07:14:11.468Z,1026.31
2023-11-18T07:15:11.588Z,1026.30
2023-11-18T07:16:11.843Z,1026.33
2023-11-18T07:17:12.029Z,1026.34
2023-11-18T07:18:12.181Z,1026.32
2023-11-18T07:19:12.255Z,1026.36
2023-11-18T07:20:12.489Z,1026.38
2023-11-18T07:21:12.625Z,1026.36
2023-11-18T07:22:12.791Z,1026.36
2023-11-18T07:23:13.061Z,1026.40
2023-11-18T07:24:13.185Z,1026.39
2023-11-18T07:25:13.343Z,1026.40
2023-11-18T07:26:13.697Z,1026.40
2023-11-18T07:27:13.746Z,1026.47
2023-11-18T07:28:13.865Z,1026.46
2023-11-18T07:29:14.124Z,1026.51
2023-11-18T07:30:14.252Z,1026.57
2023-11-18T07:31:14.459Z,1026.57
2023-11-18T07:32:14.672Z,1026.59
2023-11-18T07:33:14.773Z,1026.60
2023-11-18T07:34:14.916Z,1026.60
2023-11-18T07:35:15.121Z,1026.63
2023-11-18T07:36:15.297Z,1026.63
2023-11-18T07:37:15.417Z,1026.64
2023-11-18T07:38:15.621Z,1026.67
2023-11-18T07:39:15.800Z,1026.68
2023-11-18T07:40:15.944Z,1026.70
2023-11-18T07:41:16.195Z,1026.72
2023-11-18T07:42:16.321Z,1026.71
2023-11-18T07:43:16.507Z,1026.74
2023-11-18T07:44:16.717Z,1026.74
2023-11-18T07:45:16.839Z,1026.71
2023-11-18T07:46:17.106Z,1026.77
2023-11-18T07:47:17.213Z,1026.81
2023-11-18T07:48:17.409Z,1026.80
2023-11-18T07:49:17.571Z,1026.79
2023-11-18T07:50:17.739Z,1026.76
2023-11-18T07:51:17.862Z,1026.82
2023-11-18T07:52:18.068Z,1026.82
2023-11-18T07:53:18.303Z,1026.83
2023-11-18T07:54:18.385Z,1026.84
2023-11-18T07:55:18.586Z,1026.84
2023-11-18T07:56:18.817Z,1026.89
2023-11-18T07:57:18.911Z,1026.90
2023-11-18T07:58:19.097Z,1026.92
2023-11-18T07:59:19.314Z,1026.97
2023-11-18T08:00:19.469Z,1026.99
2023-11-18T08:01:19.690Z,1026.94
2023-11-18T08:02:19.915Z,1026.96
2023-11-18T08:03:20.055Z,1026.92
2023-11-18T08:04:20.126Z,1026.92
2023-11-18T08:05:20.402Z,1026.92
2023-11-18T08:06:20.463Z,1026.92
2023-11-18T08:07:20.664Z,1026.90
2023-11-18T08:08:20.906Z,1026.89
2023-11-18T08:09:21.020Z,1026.96
2023-11-18T08:10:21.153Z,1026.95
2023-11-18T08:11:21.352Z,1026.92
2023-11-18T08:12:21.559Z,1026.93
2023-11-18T08:13:21.706Z,1026.92
2023-11-18T08:14:21.917Z,1026.93
2023-11-18T08:15:22.056Z,1026.91
2023-11-18T08:16:22.369Z,1026.90
2023-11-18T08:17:22.508Z,1026.95
2023-11-18T08:18:22.632Z,1026.95
2023-11-18T08:19:22.759Z,1026.95
2023-11-18T08:20:23.011Z,1026.94
2023-11-18T08:21:23.110Z,1026.97
2023-11-18T08:22:23.329Z,1026.96
2023-11-18T08:23:23.515Z,1026.92
2023-11-18T08:24:23.649Z,1026.94
2023-11-18T08:25:23.839Z,1026.95
2023-11-18T08:26:24.062Z,1026.92
2023-11-18T08:27:24.186Z,1026.95
2023-11-18T08:28:24.378Z,1026.96
2023-11-18T08:29:24.611Z,1026.95
2023-11-18T08:30:24.744Z,1026.91
2023-11-18T08:31:24.970Z,1026.89
2023-11-18T08:32:25.197Z,1026.86
2023-11-18T08:33:25.401Z,1026.83
2023-11-18T08:34:25.432Z,1026.81
2023-11-18T08:35:25.590Z,1026.82
2023-11-18T08:36:25.822Z,1026.78
2023-11-18T08:37:25.999Z,1026.81
2023-11-18T08:38:26.110Z,1026.82
2023-11-18T08:39:26.285Z,1026.81
2023-11-18T08:40:26.478Z,1026.87
2023-11-18T08:41:26.616Z,1026.86
2023-11-18T08:42:26.780Z,1026.93
2023-11-18T08:43:26.957Z,1026.93
2023-11-18T08:44:27.174Z,1026.96
2023-11-18T08:45:27.283Z,1026.94
2023-11-18T08:46:27.470Z,1026.94
2023-11-18T08:47:27.645Z,1026.95
2023-11-18T08:48:27.797Z,1026.98
2023-11-18T08:49:27.990Z,1027.00
2023-11-18T08:50:28.172Z,1027.05
2023-11-18T08:51:28.387Z,1027.01
2023-11-18T08:52:28.541Z,1027.02
2023-11-18T08:53:28.766Z,1027.03
2023-11-18T08:54:28.869Z,1027.06
2023-11-18T08:55:28.996Z,1027.06
2023-11-18T08:56:29.325Z,1027.06
2023-11-18T08:57:29.418Z,1027.06
2023-11-18T08:58:30.137Z,1027.10
2023-11-18T08:59:29.747Z,1027.09
2023-11-18T09:00:29.912Z,1027.15
2023-11-18T09:01:30.178Z,1027.15
2023-11-18T09:02:31.685Z,1027.17
2023-11-18T09:03:30.674Z,1027.22
2023-11-18T09:04:30.667Z,1027.17
2023-11-18T09:05:30.797Z,1027.19
2023-11-18T09:06:30.978Z,1027.21
2023-11-18T09:07:31.141Z,1027.23
2023-11-18T09:08:31.327Z,1027.21
2023-11-18T09:09:31.542Z,1027.24
2023-11-18T09:10:31.658Z,1027.21
2023-11-18T09:11:31.830Z,1027.18
2023-11-18T09:12:31.970Z,1027.20
2023-11-18T09:13:32.127Z,1027.16
2023-11-18T09:14:32.410Z,1027.17
2023-11-18T09:15:32.492Z,1027.14
2023-11-18T09:16:32.698Z,1027.19
2023-11-18T09:17:32.927Z,1027.12
2023-11-18T09:18:33.118Z,1027.10
2023-11-18T09:19:33.150Z,1027.13
2023-11-18T09:20:33.342Z,1027.10
2023-11-18T09:21:33.560Z,1027.08
2023-11-18T09:22:33.689Z,1027.07
2023-11-18T09:23:33.857Z,1027.06
2023-11-18T09:24:35.447Z,1027.01
2023-11-18T09:25:34.211Z,1027.03
2023-11-18T09:26:34.381Z,1027.02
2023-11-18T09:27:34.582Z,1026.97
2023-11-18T09:28:34.734Z,1026.97
2023-11-18T09:29:34.911Z,1026.98
2023-11-18T09:30:35.067Z,1026.97
2023-11-18T09:31:35.316Z,1026.93
2023-11-18T09:32:35.503Z,1026.93
2023-11-18T09:33:36.027Z,1026.89
2023-11-18T09:34:35.732Z,1026.89
2023-11-18T09:35:35.959Z,1026.94
2023-11-18T09:36:36.096Z,1026.95
2023-11-18T09:37:36.334Z,1026.97
2023-11-18T09:38:36.513Z,1026.97
2023-11-18T09:39:36.676Z,1027.01
2023-11-18T09:40:36.819Z,1027.00
2023-11-18T09:41:37.004Z,1027.01
2023-11-18T09:42:37.252Z,1027.08
2023-11-18T09:43:37.482Z,1027.03
2023-11-18T09:44:37.551Z,1027.10
2023-11-18T09:45:37.782Z,1027.06
2023-11-18T09:46:37.908Z,1027.07
2023-11-18T09:47:38.152Z,1027.03
2023-11-18T09:48:38.241Z,1027.07
2023-11-18T09:49:38.437Z,1027.11
2023-11-18T09:50:38.682Z,1027.14
2023-11-18T09:51:38.771Z,1027.18
2023-11-18T09:52:38.938Z,1027.21
2023-11-18T09:53:39.151Z,1027.21
2023-11-18T09:54:39.281Z,1027.25
2023-11-18T09:55:39.473Z,1027.29
2023-11-18T09:56:40.137Z,1027.30
2023-11-18T09:57:39.776Z,1027.29
2023-11-18T09:58:39.960Z,1027.33
2023-11-18T09:59:40.146Z,1027.31
2023-11-18T10:00:40.375Z,1027.25
2023-11-18T10:01:40.516Z,1027.22
2023-11-18T10:02:40.698Z,1027.19
2023-11-18T10:03:40.885Z,1027.20
2023-11-18T10:04:41.046Z,1027.15
2023-11-18T10:05:41.220Z,1027.12
2023-11-18T10:06:41.407Z,1027.16
2023-11-18T10:07:41.592Z,1027.14
2023-11-18T10:08:41.717Z,1027.18
2023-11-18T10:09:41.893Z,1027.15
2023-11-18T10:10:42.119Z,1027.10
2023-11-18T10:11:42.267Z,1027.15
2023-11-18T10:12:42.439Z,1027.13
2023-11-18T10:13:42.644Z,1027.14
2023-11-18T10:14:42.840Z,1027.12
2023-11-18T10:15:42.964Z,1027.10
2023-11-18T10:16:43.161Z,1027.04
2023-11-18T10:17:43.354Z,1027.03
2023-11-18T10:18:43.521Z,1027.01
2023-11-18T10:19:43.687Z,1027.03
2023-11-18T10:20:43.832Z,1027.01
2023-11-18T10:21:44.002Z,1026.98
2023-11-18T10:22:44.206Z,1027.02
2023-11-18T10:23:44.327Z,1027.03
2023-11-18T10:24:44.520Z,1027.03
2023-11-18T10:25:44.799Z,1027.00
2023-11-18T10:26:44.862Z,1027.02
2023-11-18T10:27:45.054Z,1027.04
2023-11-18T10:28:45.234Z,1027.04
2023-11-18T10:29:45.396Z,1027.08
2023-11-18T10:30:46.394Z,1027.13
2023-11-18T10:31:45.746Z,1027.11
2023-11-18T10:32:45.955Z,1027.11
2023-11-18T10:33:46.110Z,1027.13
2023-11-18T10:34:46.316Z,1027.13
2023-11-18T10:35:46.413Z,1027.12
2023-11-18T10:36:46.612Z,1027.13
2023-11-18T10:37:46.778Z,1027.14
2023-11-18T10:38:46.940Z,1027.15
2023-11-18T10:39:47.129Z,1027.13
2023-11-18T10:40:47.338Z,1027.16
2023-11-18T10:41:47.453Z,1027.20
2023-11-18T10:42:47.682Z,1027.26
2023-11-18T10:43:47.832Z,1027.22
2023-11-18T10:44:47.995Z,1027.28
2023-11-18T10:45:48.255Z,1027.27
2023-11-18T10:46:48.375Z,1027.28
2023-11-18T10:47:48.546Z,1027.28
2023-11-18T10:48:49.187Z,1027.26
2023-11-18T10:49:48.919Z,1027.23
2023-11-18T10:50:49.089Z,1027.18
2023-11-18T10:51:49.205Z,1027.12
2023-11-18T10:52:49.430Z,1027.09
2023-11-18T10:53:49.588Z,1027.05
2023-11-18T10:54:49.776Z,1027.05
2023-11-18T10:55:49.913Z,1026.99
2023-11-18T10:56:50.143Z,1027.00
2023-11-18T10:57:50.301Z,1027.01
2023-11-18T10:58:50.513Z,1027.03
2023-11-18T10:59:50.602Z,1026.97
2023-11-18T11:00:50.859Z,1027.01
2023-11-18T11:01:51.625Z,1026.97
2023-11-18T11:02:51.816Z,1026.99
2023-11-18T11:03:51.378Z,1027.01
2023-11-18T11:04:51.479Z,1027.09
2023-11-18T11:05:51.679Z,1027.10
2023-11-18T11:06:51.817Z,1027.08
2023-11-18T11:07:52.012Z,1027.10
2023-11-18T11:08:52.672Z,1027.09
2023-11-18T11:09:52.309Z,1027.18
2023-11-18T11:10:52.509Z,1027.17
2023-11-18T11:11:52.659Z,1027.14
2023-11-18T11:12:52.861Z,1027.13
2023-11-18T11:13:53.011Z,1027.13
2023-11-18T11:14:53.206Z,1027.10
2023-11-18T11:15:57.582Z,1027.11
2023-11-18T11:16:53.602Z,1027.13
2023-11-18T11:17:53.722Z,1027.15
2023-11-18T11:18:53.847Z,1027.08
2023-11-18T11:19:54.048Z,1027.06
2023-11-18T11:20:54.196Z,1027.11
2023-11-18T11:21:54.389Z,1027.12
2023-11-18T11:22:54.541Z,1027.14
2023-11-18T11:23:54.732Z,1027.06
2023-11-18T11:24:54.881Z,1027.04
2023-11-18T11:25:55.105Z,1026.98
2023-11-18T11:26:55.272Z,1026.90
2023-11-18T11:27:55.400Z,1026.90
2023-11-18T11:28:55.647Z,1026.90
2023-11-18T11:29:55.787Z,1026.91
2023-11-18T11:30:55.944Z,1026.90
2023-11-18T11:31:56.105Z,1026.95
2023-11-18T11:32:56.240Z,1026.98
2023-11-18T11:33:56.398Z,1027.00
2023-11-18T11:34:56.611Z,1027.03
2023-11-18T11:35:56.726Z,1026.96
2023-11-18T11:36:56.970Z,1026.98
2023-11-18T11:37:57.096Z,1026.97
2023-11-18T11:38:57.379Z,1026.94
2023-11-18T11:39:57.405Z,1026.94
2023-11-18T11:40:57.623Z,1026.95
2023-11-18T11:41:58.370Z,1026.94
2023-11-18T11:42:57.976Z,1026.88
2023-11-18T11:43:58.182Z,1026.88
2023-11-18T11:44:58.308Z,1026.87
2023-11-18T11:45:58.507Z,1026.86
2023-11-18T11:46:58.776Z,1026.89
2023-11-18T11:47:58.926Z,1026.86
2023-11-18T11:48:58.994Z,1026.86
2023-11-18T11:50:01.708Z,1026.82
2023-11-18T11:50:59.393Z,1026.76
2023-11-18T11:51:59.522Z,1026.75
2023-11-18T11:52:59.712Z,1026.74
2023-11-18T11:53:59.851Z,1026.67
2023-11-18T11:55:00.039Z,1026.66
2023-11-18T11:56:00.334Z,1026.66
2023-11-18T11:57:00.362Z,1026.63
2023-11-18T11:58:00.549Z,1026.67
2023-11-18T11:59:00.772Z,1026.72
2023-11-18T12:00:00.902Z,1026.70
2023-11-18T12:01:01.088Z,1026.67
2023-11-18T12:02:01.296Z,1026.64
2023-11-18T12:03:01.453Z,1026.64
2023-11-18T12:04:01.654Z,1026.59
2023-11-18T12:05:01.867Z,1026.58
2023-11-18T12:06:02.012Z,1026.54
2023-11-18T12:07:08.856Z,1026.53
2023-11-18T12:08:03.390Z,1026.53